Time;durP1;ratioP1;P1;durP2;ratioP2;P2;SDS_P1;SDS_P2;PMS_P1;PMS_P2;Temp;Humidity;BMP_temperature;BMP_pressure;BME280_temperature;BME280_humidity;BME280_pressure;Samples;Min_cycle;Max_cycle;Signal;HPM_P1;HPM_P2
2022/05/02 00:02:08;;;;;;;24.48;17.45;;;6.50;99.90;;;;;;5030225;28;20767;-70
2022/05/02 00:04:33;;;;;;;23.95;16.75;;;6.40;99.90;;;;;;5048659;28;20048;-70
2022/05/02 00:06:59;;;;;;;24.67;17.63;;;6.40;99.90;;;;;;5048781;28;20128;-70
2022/05/02 00:09:25;;;;;;;22.02;16.63;;;6.40;99.90;;;;;;5029831;28;20758;-70
2022/05/02 00:11:50;;;;;;;20.85;15.45;;;6.40;99.90;;;;;;5047576;28;20037;-70
2022/05/02 00:14:16;;;;;;;26.35;17.92;;;6.30;99.90;;;;;;5048659;28;20162;-70
2022/05/02 00:16:42;;;;;;;21.90;17.52;;;6.30;99.90;;;;;;5048253;28;20133;-70
2022/05/02 00:19:08;;;;;;;29.20;18.88;;;6.20;99.90;;;;;;5030124;28;20414;-70
2022/05/02 00:21:34;;;;;;;21.35;17.58;;;6.20;99.90;;;;;;5048773;28;20029;-70
2022/05/02 00:23:59;;;;;;;25.40;19.27;;;6.20;99.90;;;;;;5047810;28;20041;-70
2022/05/02 00:26:25;;;;;;;33.42;19.70;;;6.10;99.90;;;;;;5035453;28;20155;-70
2022/05/02 00:28:50;;;;;;;24.50;19.40;;;6.10;99.90;;;;;;5029951;28;20045;-70
2022/05/02 00:31:16;;;;;;;32.88;21.10;;;6.00;99.90;;;;;;5030315;28;20138;-70
2022/05/02 00:33:42;;;;;;;27.00;19.50;;;5.90;99.90;;;;;;5047318;28;20060;-70
2022/05/02 00:36:07;;;;;;;23.77;18.75;;;5.90;99.90;;;;;;5040195;28;20415;-70
2022/05/02 00:38:33;;;;;;;26.08;19.75;;;5.90;99.90;;;;;;5041503;28;20131;-70
2022/05/02 00:40:59;;;;;;;28.73;19.48;;;5.90;99.90;;;;;;5026840;28;20057;-70
2022/05/02 00:43:25;;;;;;;37.35;21.42;;;5.90;99.90;;;;;;5013243;28;20049;-70
2022/05/02 00:45:50;;;;;;;22.10;18.23;;;5.80;99.90;;;;;;5030104;28;20070;-70
2022/05/02 00:48:16;;;;;;;23.75;18.52;;;5.80;99.90;;;;;;5030050;28;20136;-70
2022/05/02 00:50:44;;;;;;;24.17;20.00;;;5.80;99.90;;;;;;5046656;28;20426;-70
2022/05/02 00:53:20;;;;;;;27.67;19.52;;;5.80;99.90;;;;;;5051578;28;20052;-70
2022/05/02 00:55:46;;;;;;;30.83;21.25;;;5.80;99.90;;;;;;5047803;28;20041;-70
2022/05/02 00:58:16;;;;;;;28.05;19.98;;;5.80;99.90;;;;;;5029828;28;20059;-70
2022/05/02 01:00:42;;;;;;;22.48;18.85;;;5.70;99.90;;;;;;5048082;28;20044;-70
2022/05/02 01:03:10;;;;;;;39.50;21.15;;;5.70;99.90;;;;;;5037077;28;20371;-70
2022/05/02 01:08:31;;;;;;;25.98;19.42;;;5.70;99.90;;;;;;5029265;28;20472;-70
2022/05/02 01:10:57;;;;;;;23.83;19.02;;;5.70;99.90;;;;;;5029145;28;20057;-70
2022/05/02 01:13:43;;;;;;;28.98;20.27;;;5.70;99.90;;;;;;5047001;28;20112;-70
2022/05/02 01:16:13;;;;;;;25.60;21.08;;;5.70;99.90;;;;;;5029405;28;20053;-70
2022/05/02 01:18:39;;;;;;;30.92;21.20;;;5.60;99.90;;;;;;5020507;28;20056;-70
2022/05/02 01:21:09;;;;;;;27.80;19.80;;;5.60;99.90;;;;;;5027809;28;20049;-70
2022/05/02 01:23:35;;;;;;;26.10;20.45;;;5.60;99.90;;;;;;5029353;28;20128;-70
2022/05/02 01:26:00;;;;;;;28.27;21.13;;;5.60;99.90;;;;;;5028746;28;20120;-70
2022/05/02 01:28:28;;;;;;;25.73;20.40;;;5.50;99.90;;;;;;5029429;28;20057;-70
2022/05/02 01:30:54;;;;;;;25.65;19.90;;;5.50;99.90;;;;;;5051527;28;20049;-70
2022/05/02 01:33:20;;;;;;;30.20;21.88;;;5.50;99.90;;;;;;5051287;28;20056;-70
2022/05/02 01:35:46;;;;;;;24.40;19.58;;;5.50;99.90;;;;;;5033707;28;20757;-70
2022/05/02 01:38:12;;;;;;;26.25;19.85;;;5.40;99.90;;;;;;5050992;28;20075;-71
2022/05/02 01:40:38;;;;;;;27.33;20.35;;;5.40;99.90;;;;;;5030058;28;20242;-70
2022/05/02 01:43:04;;;;;;;29.85;20.55;;;5.40;99.90;;;;;;5048535;28;20486;-70
2022/05/02 01:45:30;;;;;;;25.80;20.65;;;5.30;99.90;;;;;;5027165;28;20387;-70
2022/05/02 01:47:56;;;;;;;30.80;21.13;;;5.30;99.90;;;;;;5025441;28;20060;-70
2022/05/02 01:50:22;;;;;;;29.67;21.23;;;5.30;99.90;;;;;;5051397;28;20269;-70
2022/05/02 01:52:48;;;;;;;25.13;20.52;;;5.20;99.90;;;;;;5050960;28;20068;-70
2022/05/02 01:55:14;;;;;;;26.73;21.00;;;5.20;99.90;;;;;;5032942;28;20045;-70
2022/05/02 01:57:40;;;;;;;29.23;19.77;;;5.20;99.90;;;;;;5048380;28;20320;-70
2022/05/02 02:00:06;;;;;;;31.00;21.30;;;5.10;99.90;;;;;;5050383;28;20053;-70
2022/05/02 02:02:31;;;;;;;29.13;21.20;;;5.10;99.90;;;;;;5024249;28;20045;-70
2022/05/02 02:07:41;;;;;;;31.80;22.25;;;5.00;99.90;;;;;;5046859;28;20077;-70
2022/05/02 02:10:07;;;;;;;26.13;20.45;;;4.90;99.90;;;;;;5050551;28;20103;-70
2022/05/02 02:12:33;;;;;;;31.35;21.45;;;4.90;99.90;;;;;;5050511;28;20049;-70
2022/05/02 02:14:58;;;;;;;31.00;22.33;;;4.90;99.90;;;;;;5050807;28;20045;-70
2022/05/02 02:17:24;;;;;;;29.92;22.77;;;4.90;99.90;;;;;;5032988;28;20298;-70
2022/05/02 02:19:50;;;;;;;31.33;22.67;;;4.80;99.90;;;;;;5033784;28;20156;-70
2022/05/02 02:22:18;;;;;;;35.60;24.35;;;4.80;99.90;;;;;;5048935;28;20044;-70
2022/05/02 02:24:46;;;;;;;33.03;23.42;;;4.80;99.90;;;;;;5032718;28;20088;-70
2022/05/02 02:27:12;;;;;;;28.93;22.67;;;4.80;99.90;;;;;;5050228;28;20140;-70
2022/05/02 02:29:38;;;;;;;34.45;23.00;;;4.80;99.90;;;;;;5033146;28;20052;-70
2022/05/02 02:32:04;;;;;;;32.97;24.13;;;4.80;99.90;;;;;;5050169;28;20057;-70
2022/05/02 02:34:30;;;;;;;32.08;22.67;;;4.70;99.90;;;;;;5050578;28;20126;-70
2022/05/02 02:36:56;;;;;;;34.75;23.58;;;4.70;99.90;;;;;;5031723;28;20049;-70
2022/05/02 02:39:21;;;;;;;37.85;26.63;;;4.70;99.90;;;;;;5050557;28;20605;-70
2022/05/02 02:41:47;;;;;;;37.88;26.15;;;4.70;99.90;;;;;;5017675;28;20514;-70
2022/05/02 02:44:12;;;;;;;39.08;25.10;;;4.60;99.90;;;;;;5040493;28;20041;-70
2022/05/02 02:46:38;;;;;;;39.17;25.85;;;4.60;99.90;;;;;;5028502;28;20131;-70
2022/05/02 02:49:03;;;;;;;35.00;24.60;;;4.60;99.90;;;;;;5030589;28;20053;-70
2022/05/02 02:51:29;;;;;;;33.63;25.70;;;4.60;99.90;;;;;;5049337;28;20037;-70
2022/05/02 02:53:55;;;;;;;35.10;24.52;;;4.50;99.90;;;;;;5031949;28;20041;-70
2022/05/02 02:56:20;;;;;;;32.15;25.33;;;4.50;99.90;;;;;;5031721;28;20048;-70
2022/05/02 02:58:47;;;;;;;33.33;25.23;;;4.50;99.90;;;;;;5032294;28;20080;-70
2022/05/02 03:01:13;;;;;;;33.88;24.85;;;4.50;99.90;;;;;;5049673;28;20048;-70
2022/05/02 03:03:38;;;;;;;35.65;25.70;;;4.50;99.90;;;;;;5030226;28;20044;-70
2022/05/02 03:06:05;;;;;;;36.83;26.60;;;4.40;99.90;;;;;;5049742;28;20414;-70
2022/05/02 03:08:36;;;;;;;35.30;24.52;;;4.40;99.90;;;;;;5049511;28;20053;-71
2022/05/02 03:11:03;;;;;;;34.15;24.42;;;4.40;99.90;;;;;;5049463;28;20048;-71
2022/05/02 03:13:29;;;;;;;40.60;26.27;;;4.30;99.90;;;;;;5049966;28;20194;-70
2022/05/02 03:15:55;;;;;;;39.17;26.60;;;4.30;99.90;;;;;;5031357;28;20060;-71
2022/05/02 03:18:21;;;;;;;32.55;24.67;;;4.30;99.90;;;;;;5030805;28;20048;-70
2022/05/02 03:20:47;;;;;;;39.90;27.42;;;4.30;99.90;;;;;;5049638;28;20049;-70
2022/05/02 03:23:13;;;;;;;32.47;24.88;;;4.30;99.90;;;;;;5031645;28;20041;-71
2022/05/02 03:25:39;;;;;;;38.25;28.23;;;4.20;99.90;;;;;;5031142;28;20053;-71
2022/05/02 03:28:05;;;;;;;40.33;27.83;;;4.20;99.90;;;;;;5031926;28;20676;-71
2022/05/02 03:30:31;;;;;;;40.78;26.38;;;4.20;99.90;;;;;;5031672;28;20132;-71
2022/05/02 03:32:57;;;;;;;34.55;25.23;;;4.20;99.90;;;;;;5030508;28;20059;-71
2022/05/02 03:35:22;;;;;;;40.53;26.88;;;4.10;99.90;;;;;;5049191;28;20055;-71
2022/05/02 03:37:48;;;;;;;32.50;24.77;;;4.10;99.90;;;;;;5049208;28;20135;-70
2022/05/02 03:40:14;;;;;;;34.90;24.90;;;4.10;99.90;;;;;;5030908;28;20060;-70
2022/05/02 03:42:39;;;;;;;41.85;25.40;;;4.10;99.90;;;;;;5030643;28;20765;-71
2022/05/02 03:45:06;;;;;;;40.15;25.95;;;4.10;99.90;;;;;;5031276;28;20045;-71
2022/05/02 03:47:32;;;;;;;35.00;26.05;;;4.00;99.90;;;;;;5048039;28;20053;-71
2022/05/02 03:49:57;;;;;;;36.85;26.00;;;4.00;99.90;;;;;;5022910;28;20056;-69
2022/05/02 03:52:23;;;;;;;38.53;27.52;;;4.00;99.90;;;;;;5008676;28;20375;-69
2022/05/02 03:54:49;;;;;;;40.63;28.05;;;4.00;99.90;;;;;;5043476;28;20037;-69
2022/05/02 03:57:14;;;;;;;37.97;26.40;;;4.00;99.90;;;;;;5045024;28;20522;-69
2022/05/02 03:59:40;;;;;;;33.33;25.23;;;3.90;99.90;;;;;;5048474;28;20045;-69
2022/05/02 04:02:06;;;;;;;41.45;28.85;;;3.90;99.90;;;;;;5030132;28;20041;-70
2022/05/02 04:04:31;;;;;;;41.50;27.80;;;3.90;99.90;;;;;;5031074;28;20129;-69
2022/05/02 04:06:57;;;;;;;39.25;28.63;;;3.90;99.90;;;;;;5030655;28;20137;-69
2022/05/02 04:09:23;;;;;;;40.15;29.35;;;3.90;99.90;;;;;;5030715;28;20041;-69
2022/05/02 04:11:48;;;;;;;36.67;29.50;;;3.90;99.90;;;;;;5047610;28;20041;-69
2022/05/02 04:14:14;;;;;;;44.05;27.83;;;3.90;99.90;;;;;;5030729;28;20049;-70
2022/05/02 04:16:40;;;;;;;37.20;28.13;;;3.90;99.90;;;;;;5047777;28;20069;-69
2022/05/02 04:19:06;;;;;;;38.40;29.08;;;4.00;99.90;;;;;;5043885;28;20041;-69
2022/05/02 04:21:31;;;;;;;43.42;27.55;;;4.10;99.90;;;;;;5041794;28;20102;-69
2022/05/02 04:23:57;;;;;;;40.95;28.70;;;4.10;99.90;;;;;;5029308;28;20127;-69
2022/05/02 04:26:23;;;;;;;41.17;28.35;;;4.20;99.90;;;;;;5030245;28;20045;-69
2022/05/02 04:28:49;;;;;;;34.38;27.45;;;4.30;99.90;;;;;;5046918;28;20049;-69
2022/05/02 04:31:15;;;;;;;43.05;31.02;;;4.40;99.90;;;;;;5029671;28;20443;-70
2022/05/02 04:33:40;;;;;;;44.75;29.45;;;4.40;99.90;;;;;;5048179;28;20083;-69
2022/05/02 04:36:07;;;;;;;51.70;30.38;;;4.40;99.90;;;;;;5029698;28;20045;-69
2022/05/02 04:38:32;;;;;;;38.63;27.75;;;4.40;99.90;;;;;;5013945;28;20505;-69
2022/05/02 04:40:58;;;;;;;36.72;28.80;;;4.50;99.90;;;;;;5047002;28;20049;-69
2022/05/02 04:43:24;;;;;;;39.13;29.20;;;4.50;99.90;;;;;;5030437;28;20099;-69
2022/05/02 04:45:51;;;;;;;47.28;29.20;;;4.60;99.90;;;;;;5047807;28;20041;-69
2022/05/02 04:48:17;;;;;;;41.33;30.63;;;4.50;99.90;;;;;;5047595;28;20044;-69
2022/05/02 04:50:43;;;;;;;43.00;30.55;;;4.50;99.90;;;;;;5047497;28;20041;-69
2022/05/02 04:53:09;;;;;;;44.83;29.98;;;4.50;99.90;;;;;;5047229;28;20124;-69
2022/05/02 04:55:35;;;;;;;47.75;31.27;;;4.60;99.90;;;;;;5047661;28;20052;-69
2022/05/02 04:58:00;;;;;;;41.05;29.88;;;4.70;99.90;;;;;;5028333;28;20082;-69
2022/05/02 05:00:26;;;;;;;38.08;29.38;;;4.90;99.90;;;;;;5029988;28;20096;-69
2022/05/02 05:02:52;;;;;;;39.10;27.83;;;5.00;99.90;;;;;;5047377;28;20049;-69
2022/05/02 05:05:17;;;;;;;39.25;28.50;;;5.20;99.90;;;;;;5047348;28;20041;-69
2022/05/02 05:07:43;;;;;;;39.25;30.02;;;5.40;99.90;;;;;;5047945;28;20417;-69
2022/05/02 05:10:11;;;;;;;37.85;27.77;;;5.50;99.90;;;;;;5047760;28;20037;-69
2022/05/02 05:12:52;;;;;;;51.57;31.13;;;5.50;99.90;;;;;;5046926;28;20056;-69
2022/05/02 05:18:46;;;;;;;37.10;28.98;;;5.60;99.90;;;;;;5019348;28;20141;-69
2022/05/02 05:21:24;;;;;;;37.85;27.55;;;5.70;99.90;;;;;;5044973;28;20090;-68
2022/05/02 05:24:23;;;;;;;39.42;27.83;;;5.70;99.90;;;;;;5043976;28;20039;-67
2022/05/02 05:27:24;;;;;;;41.45;28.08;;;5.90;99.90;;;;;;5047037;28;20434;-68
2022/05/02 05:30:04;;;;;;;43.85;28.60;;;6.00;99.90;;;;;;5009718;28;20124;-68
2022/05/02 05:32:46;;;;;;;40.67;27.95;;;6.10;99.90;;;;;;5034962;28;20431;-67
2022/05/02 05:35:18;;;;;;;32.80;27.02;;;6.20;99.90;;;;;;5047152;28;20441;-68
2022/05/02 05:37:49;;;;;;;41.40;30.67;;;6.30;99.90;;;;;;5034013;28;20136;-68
2022/05/02 05:40:28;;;;;;;41.38;28.67;;;6.40;99.90;;;;;;5042913;28;20056;-70
2022/05/02 05:43:08;;;;;;;39.83;30.73;;;6.40;99.90;;;;;;5035461;28;20539;-70
2022/05/02 05:45:57;;;;;;;43.08;30.80;;;6.40;99.90;;;;;;5030151;28;20053;-70
2022/05/02 05:48:57;;;;;;;43.50;31.38;;;6.40;99.90;;;;;;5045669;28;20468;-69
2022/05/02 05:51:38;;;;;;;45.50;30.30;;;6.50;99.90;;;;;;5028101;28;20049;-66
2022/05/02 05:54:34;;;;;;;42.60;32.67;;;6.50;99.90;;;;;;5046304;28;20041;-68
2022/05/02 05:57:28;;;;;;;39.92;29.85;;;6.60;99.90;;;;;;5040468;28;20056;-69
2022/05/02 06:00:05;;;;;;;53.45;34.40;;;6.70;99.90;;;;;;5019736;28;20045;-69
2022/05/02 06:03:07;;;;;;;50.00;32.75;;;6.80;99.90;;;;;;5042547;28;20049;-69
2022/05/02 06:05:42;;;;;;;44.85;31.65;;;6.80;99.90;;;;;;5046854;28;20048;-69
2022/05/02 06:08:14;;;;;;;44.38;31.63;;;6.80;99.90;;;;;;5045114;28;20052;-69
2022/05/02 06:10:42;;;;;;;41.60;29.77;;;6.80;99.90;;;;;;5044644;28;20080;-69
2022/05/02 06:13:08;;;;;;;51.77;34.37;;;6.80;99.90;;;;;;5037146;28;20052;-69
2022/05/02 06:18:34;;;;;;;45.13;33.33;;;6.90;99.90;;;;;;5046592;28;20056;-69
2022/05/02 06:21:05;;;;;;;54.15;34.08;;;7.00;99.90;;;;;;5043087;28;20438;-68
2022/05/02 06:23:42;;;;;;;54.92;32.58;;;7.20;99.90;;;;;;5031030;28;20045;-69
2022/05/02 06:26:09;;;;;;;47.03;33.42;;;7.30;99.90;;;;;;5041818;28;20076;-69
2022/05/02 06:28:43;;;;;;;53.20;33.67;;;7.50;99.90;;;;;;5049980;28;20041;-69
2022/05/02 06:31:29;;;;;;;47.92;34.13;;;7.60;99.90;;;;;;5032052;28;20516;-70
2022/05/02 06:33:57;;;;;;;55.42;30.55;;;7.70;99.90;;;;;;5049477;28;20119;-70
2022/05/02 06:36:57;;;;;;;46.88;33.20;;;7.80;99.90;;;;;;5048795;28;20057;-69
2022/05/02 06:39:48;;;;;;;46.78;31.58;;;8.00;99.90;;;;;;5030337;28;20052;-68
2022/05/02 06:42:38;;;;;;;44.42;32.30;;;8.10;99.90;;;;;;5025942;28;20049;-69
2022/05/02 06:45:08;;;;;;;41.90;29.55;;;8.30;99.90;;;;;;5030191;28;20045;-71
2022/05/02 06:47:49;;;;;;;40.92;31.00;;;8.40;99.90;;;;;;5048244;28;20091;-69
2022/05/02 06:50:18;;;;;;;38.15;28.60;;;8.60;99.90;;;;;;5031700;28;20055;-69
2022/05/02 06:53:10;;;;;;;39.92;29.38;;;8.80;99.90;;;;;;5049696;28;20115;-69
2022/05/02 06:55:57;;;;;;;34.53;26.52;;;9.10;99.90;;;;;;5032667;28;20056;-69
2022/05/02 06:58:35;;;;;;;33.13;25.83;;;9.50;99.90;;;;;;5041728;28;20048;-69
2022/05/02 07:01:26;;;;;;;33.50;24.92;;;9.70;99.90;;;;;;5029292;28;20517;-69
2022/05/02 07:04:11;;;;;;;33.03;25.63;;;10.00;99.90;;;;;;5044386;28;20477;-69
2022/05/02 07:06:46;;;;;;;35.00;26.08;;;10.40;99.90;;;;;;5046462;28;20059;-69
2022/05/02 07:09:21;;;;;;;29.83;23.45;;;10.60;99.90;;;;;;5047486;28;20395;-69
2022/05/02 07:12:00;;;;;;;30.83;24.15;;;10.80;99.90;;;;;;5016047;28;20048;-69
2022/05/02 07:14:35;;;;;;;42.25;25.05;;;11.10;99.90;;;;;;5046468;28;20119;-69
2022/05/02 07:17:07;;;;;;;32.85;22.55;;;11.20;99.90;;;;;;5023723;28;20048;-67
2022/05/02 07:19:54;;;;;;;34.25;23.08;;;11.40;99.90;;;;;;5014093;28;20051;-69
2022/05/02 07:22:34;;;;;;;31.15;22.42;;;11.70;99.90;;;;;;5027451;28;20497;-69
2022/05/02 07:25:11;;;;;;;26.67;21.52;;;12.10;99.90;;;;;;5049080;28;20129;-70
2022/05/02 07:27:42;;;;;;;27.75;21.55;;;12.40;99.90;;;;;;5027530;28;20587;-72
2022/05/02 07:30:09;;;;;;;33.95;22.70;;;12.60;99.90;;;;;;5032166;28;20060;-70
2022/05/02 07:32:35;;;;;;;31.23;22.42;;;12.70;99.90;;;;;;5049658;28;20053;-70
2022/05/02 07:35:01;;;;;;;26.88;21.92;;;12.90;99.90;;;;;;5050375;28;20118;-70
2022/05/02 07:37:31;;;;;;;24.23;20.60;;;13.10;99.90;;;;;;5049910;28;20049;-70
2022/05/02 07:39:58;;;;;;;25.15;21.77;;;13.30;99.90;;;;;;5056371;28;20053;-70
2022/05/02 07:42:25;;;;;;;28.58;20.75;;;13.60;99.90;;;;;;5050231;28;20025;-69
2022/05/02 07:44:55;;;;;;;27.70;21.50;;;13.70;99.90;;;;;;5032164;28;20060;-70
2022/05/02 07:47:21;;;;;;;27.95;20.52;;;13.90;99.90;;;;;;5044827;28;20495;-69
2022/05/02 07:49:50;;;;;;;28.08;20.27;;;14.10;99.90;;;;;;5041523;28;20418;-69
2022/05/02 07:52:16;;;;;;;;;;;14.30;99.90;;;;;;5040911;28;20048;-70
2022/05/02 07:54:46;;;;;;;26.38;21.73;;;14.40;99.90;;;;;;5024920;28;19962;-69
2022/05/02 07:57:14;;;;;;;21.00;18.80;;;14.50;99.90;;;;;;5041868;28;20091;-69
2022/05/02 07:59:42;;;;;;;27.15;18.85;;;14.70;99.90;;;;;;5043204;28;20075;-69
2022/05/02 08:02:08;;;;;;;22.33;19.25;;;14.90;99.90;;;;;;5046173;28;20121;-69
2022/05/02 08:04:38;;;;;;;23.63;19.23;;;15.00;99.90;;;;;;5047969;28;20464;-70
2022/05/02 08:07:13;;;;;;;23.58;17.63;;;14.90;99.90;;;;;;5046622;28;20049;-71
2022/05/02 08:09:57;;;;;;;28.20;19.70;;;14.80;99.90;;;;;;5047853;28;20045;-72
2022/05/02 08:12:39;;;;;;;20.85;18.02;;;15.00;99.90;;;;;;5047547;28;20102;-69
2022/05/02 08:15:24;;;;;;;22.83;17.63;;;15.20;96.90;;;;;;5031146;28;20044;-70
2022/05/02 08:18:01;;;;;;;24.23;16.10;;;15.60;97.70;;;;;;5048372;28;20045;-69
2022/05/02 08:20:39;;;;;;;;;;;15.80;93.80;;;;;;5048426;28;20056;-70
2022/05/02 08:29:29;;;;;;;22.08;15.95;;;16.10;85.60;;;;;;5022300;28;20080;-69
2022/05/02 08:32:07;;;;;;;;;;;16.20;78.30;;;;;;5045927;28;20060;-69
2022/05/02 08:34:38;;;;;;;23.67;17.90;;;16.30;75.70;;;;;;5013572;28;20042;-70
2022/05/02 08:37:20;;;;;;;22.25;17.50;;;16.50;78.20;;;;;;5027012;28;20107;-69
2022/05/02 08:39:58;;;;;;;21.48;16.05;;;16.20;77.60;;;;;;5048521;28;20091;-69
2022/05/02 08:42:36;;;;;;;21.83;16.55;;;16.20;74.70;;;;;;5048682;28;20082;-69
2022/05/02 08:45:07;;;;;;;25.17;17.70;;;16.40;74.90;;;;;;5048937;28;20064;-69
2022/05/02 08:47:52;;;;;;;24.08;16.70;;;16.60;75.70;;;;;;5048421;28;20041;-69
2022/05/02 08:50:17;;;;;;;18.42;15.90;;;16.60;72.60;;;;;;5030615;28;20045;-69
2022/05/02 08:53:04;;;;;;;19.85;15.77;;;16.60;74.00;;;;;;5042960;28;20047;-69
2022/05/02 08:55:42;;;;;;;26.23;17.38;;;16.80;72.00;;;;;;5043436;28;20509;-69
2022/05/02 08:58:37;;;;;;;26.40;17.63;;;16.90;68.20;;;;;;5045951;28;20048;-69
2022/05/02 09:01:31;;;;;;;21.17;18.23;;;16.90;67.20;;;;;;5044229;28;20049;-69
2022/05/02 09:04:14;;;;;;;16.58;14.88;;;17.00;70.00;;;;;;5021579;28;20139;-69
2022/05/02 09:07:19;;;;;;;18.13;16.13;;;17.30;70.70;;;;;;5046548;28;20110;-69
2022/05/02 09:09:57;;;;;;;21.75;15.55;;;17.40;62.80;;;;;;5046106;28;20040;-69
2022/05/02 09:12:50;;;;;;;19.70;16.35;;;17.50;67.10;;;;;;5041484;28;20102;-69
2022/05/02 09:15:38;;;;;;;19.02;16.15;;;17.30;61.40;;;;;;5041065;28;20056;-69
2022/05/02 09:18:34;;;;;;;17.10;15.30;;;17.20;63.80;;;;;;5047142;28;20045;-68
2022/05/02 09:21:12;;;;;;;17.90;15.63;;;17.40;60.90;;;;;;5047833;28;20103;-69
2022/05/02 09:23:57;;;;;;;;;;;17.40;63.50;;;;;;5049114;28;20056;-69
2022/05/02 09:26:56;;;;;;;17.83;12.85;;;17.50;59.70;;;;;;5046812;28;19921;-69
2022/05/02 09:29:49;;;;;;;21.52;15.05;;;17.60;58.30;;;;;;5042015;28;20053;-69
2022/05/02 09:32:43;;;;;;;18.52;14.98;;;17.50;58.40;;;;;;5018756;28;20149;-69
2022/05/02 09:35:33;;;;;;;16.95;14.10;;;17.50;58.20;;;;;;5022963;28;20087;-70
2022/05/02 09:38:00;;;;;;;18.52;14.38;;;17.60;60.00;;;;;;5023417;28;20084;-69
2022/05/02 09:40:36;;;;;;;17.58;14.38;;;17.40;59.20;;;;;;5027512;28;20060;-69
2022/05/02 09:43:24;;;;;;;17.00;12.68;;;17.30;57.30;;;;;;5028266;28;20085;-69
2022/05/02 09:49:33;;;;;;;19.70;12.40;;;18.00;58.00;;;;;;5027619;28;20442;-69
2022/05/02 09:52:15;;;;;;;13.02;11.40;;;18.20;57.80;;;;;;5028164;28;20139;-69
2022/05/02 09:57:46;;;;;;;16.98;14.80;;;18.20;55.20;;;;;;5031224;28;20064;-70
2022/05/02 10:03:21;;;;;;;16.98;15.18;;;18.00;55.50;;;;;;5030541;28;20065;-69
2022/05/02 10:05:53;;;;;;;20.42;13.30;;;18.10;54.30;;;;;;5030118;28;20046;-69
2022/05/02 10:08:47;;;;;;;18.15;14.98;;;18.10;56.10;;;;;;5032252;28;20041;-70
2022/05/02 10:11:52;;;;;;;16.48;12.65;;;18.30;54.10;;;;;;5023140;28;20404;-69
2022/05/02 10:14:35;;;;;;;18.30;12.82;;;18.50;53.80;;;;;;5028601;28;20046;-69
2022/05/02 10:17:14;;;;;;;15.23;13.25;;;18.60;55.40;;;;;;5031449;28;20081;-69
2022/05/02 10:19:55;;;;;;;20.90;14.48;;;19.00;53.80;;;;;;5022201;28;20064;-68
2022/05/02 10:22:28;;;;;;;15.93;12.63;;;18.90;53.90;;;;;;5031944;28;20104;-69
2022/05/02 10:25:02;;;;;;;16.90;13.18;;;18.30;52.30;;;;;;5031485;28;20108;-69
2022/05/02 10:27:48;;;;;;;18.50;12.48;;;18.20;52.90;;;;;;5030535;28;20088;-69
2022/05/02 10:30:13;;;;;;;15.77;12.18;;;18.10;53.70;;;;;;5031599;28;20045;-68
2022/05/02 10:32:56;;;;;;;17.63;14.32;;;18.30;54.30;;;;;;5029541;28;20055;-69
2022/05/02 10:35:25;;;;;;;12.65;11.30;;;18.70;54.50;;;;;;5029274;28;20418;-69
2022/05/02 10:37:58;;;;;;;13.73;12.27;;;19.00;54.70;;;;;;5022105;28;20060;-69
2022/05/02 10:40:32;;;;;;;15.88;13.40;;;19.50;53.70;;;;;;5030995;28;20577;-68
2022/05/02 10:43:01;;;;;;;14.93;11.32;;;19.80;52.40;;;;;;5029967;28;20511;-68
2022/05/02 10:45:27;;;;;;;13.98;10.43;;;20.00;51.40;;;;;;5030436;28;20050;-68
2022/05/02 10:47:55;;;;;;;19.70;13.18;;;20.20;51.70;;;;;;5029209;28;20188;-68
2022/05/02 10:50:21;;;;;;;;;;;20.40;51.60;;;;;;5030147;28;20049;-69
2022/05/02 10:52:46;;;;;;;24.95;16.33;;;19.90;48.60;;;;;;5030987;28;19932;-69
2022/05/02 10:55:26;;;;;;;17.27;13.90;;;19.70;52.80;;;;;;5025431;28;20057;-69
2022/05/02 10:57:54;;;;;;;22.33;15.23;;;20.10;54.50;;;;;;5017480;28;20061;-68
2022/05/02 11:00:21;;;;;;;16.58;14.80;;;20.00;52.20;;;;;;5028380;28;20575;-68
2022/05/02 11:03:07;;;;;;;20.33;15.75;;;19.90;51.20;;;;;;5029386;28;20100;-69
2022/05/02 11:05:57;;;;;;;16.50;14.65;;;19.60;50.30;;;;;;5030952;28;20053;-69
2022/05/02 11:08:37;;;;;;;19.55;13.95;;;19.60;50.70;;;;;;5015686;28;20069;-70
2022/05/02 11:11:06;;;;;;;15.05;13.20;;;19.80;51.90;;;;;;5023430;28;20131;-69
2022/05/02 11:13:46;;;;;;;14.90;12.52;;;20.00;53.90;;;;;;5028610;28;20033;-69
2022/05/02 11:16:40;;;;;;;16.60;14.65;;;20.40;53.30;;;;;;5028077;28;20628;-68
2022/05/02 11:22:38;;;;;;;16.90;14.00;;;20.60;50.30;;;;;;5029760;28;20077;-68
2022/05/02 11:25:24;;;;;;;14.15;11.35;;;20.60;50.80;;;;;;5030775;28;20128;-68
2022/05/02 11:27:59;;;;;;;14.02;12.55;;;21.00;51.80;;;;;;5028098;28;20049;-68
2022/05/02 11:30:35;;;;;;;16.55;14.00;;;21.10;48.90;;;;;;5029068;28;20051;-69
2022/05/02 11:33:33;;;;;;;15.80;12.32;;;20.80;49.50;;;;;;5045806;28;20056;-69
2022/05/02 11:36:01;;;;;;;21.10;12.70;;;20.70;51.00;;;;;;5012539;28;20060;-68
2022/05/02 11:38:53;;;;;;;;;;;20.80;50.50;;;;;;5050347;28;20056;-69
2022/05/02 11:41:22;;;;;;;14.27;12.05;;;20.60;49.50;;;;;;5031504;28;19932;-68
2022/05/02 11:43:49;;;;;;;12.52;10.85;;;20.40;51.10;;;;;;5029595;28;20596;-68
2022/05/02 11:46:18;;;;;;;22.52;15.18;;;20.50;50.40;;;;;;5026106;28;20123;-68
2022/05/02 11:49:17;;;;;;;18.92;13.45;;;20.10;48.70;;;;;;5048217;28;20468;-68
2022/05/02 11:51:50;;;;;;;14.20;12.43;;;19.60;47.00;;;;;;5025756;28;20053;-68
2022/05/02 11:54:32;;;;;;;15.35;13.18;;;19.50;49.90;;;;;;5044119;28;20055;-68
2022/05/02 11:57:11;;;;;;;17.63;12.73;;;19.70;49.70;;;;;;5041512;28;20095;-68
2022/05/02 12:00:05;;;;;;;17.65;13.75;;;19.80;48.50;;;;;;5046977;28;20347;-67
2022/05/02 12:02:52;;;;;;;19.33;12.90;;;19.60;47.90;;;;;;5021997;28;20064;-67
2022/05/02 12:05:17;;;;;;;17.60;13.45;;;19.60;49.50;;;;;;5043727;28;20048;-68
2022/05/02 12:07:53;;;;;;;20.25;12.55;;;19.50;49.00;;;;;;5046239;28;20037;-67
2022/05/02 12:10:31;;;;;;;16.17;14.55;;;19.70;49.50;;;;;;5044995;28;20042;-67
2022/05/02 12:12:57;;;;;;;17.48;12.73;;;19.80;49.00;;;;;;5048685;28;20087;-67
2022/05/02 12:15:24;;;;;;;21.92;13.30;;;20.00;48.70;;;;;;5048481;28;20076;-68
2022/05/02 12:17:53;;;;;;;14.10;12.65;;;19.90;48.50;;;;;;5048969;28;20045;-67
2022/05/02 12:20:24;;;;;;;14.85;13.25;;;19.80;48.30;;;;;;5049445;28;20670;-68
2022/05/02 12:23:10;;;;;;;20.13;14.15;;;19.60;47.90;;;;;;5048585;28;20080;-69
2022/05/02 12:25:50;;;;;;;15.43;12.75;;;19.30;47.70;;;;;;5046032;28;20041;-69
2022/05/02 12:28:18;;;;;;;15.68;12.52;;;19.40;47.40;;;;;;5030704;28;20118;-69
2022/05/02 12:30:52;;;;;;;15.23;10.88;;;19.30;48.60;;;;;;5021551;28;20053;-68
2022/05/02 12:33:20;;;;;;;17.98;11.55;;;19.40;46.30;;;;;;5031901;28;20052;-67
2022/05/02 12:35:46;;;;;;;20.50;13.93;;;19.60;47.60;;;;;;5013064;28;20180;-68
2022/05/02 12:38:17;;;;;;;19.25;15.07;;;19.70;47.80;;;;;;5023662;28;20406;-68
2022/05/02 12:40:50;;;;;;;13.27;12.00;;;19.70;47.70;;;;;;5025474;28;20055;-69
2022/05/02 12:43:25;;;;;;;25.50;11.43;;;20.00;48.00;;;;;;5046354;28;20060;-69
2022/05/02 12:45:53;;;;;;;13.18;10.75;;;20.10;48.10;;;;;;5039896;28;20051;-68
2022/05/02 12:48:36;;;;;;;14.18;11.68;;;20.40;47.80;;;;;;5028480;28;20048;-69
2022/05/02 12:51:04;;;;;;;13.85;10.43;;;20.30;44.70;;;;;;5028932;28;20053;-69
2022/05/02 12:56:14;;;;;;;14.32;10.52;;;20.20;45.40;;;;;;5031174;28;19927;-69
2022/05/02 13:01:39;;;;;;;14.38;11.05;;;20.20;46.10;;;;;;5033638;28;20056;-69
2022/05/02 13:04:05;;;;;;;16.75;13.95;;;20.20;47.70;;;;;;5025256;28;20501;-69
2022/05/02 13:06:39;;;;;;;19.10;12.68;;;20.10;46.60;;;;;;5030252;28;20581;-68
2022/05/02 13:09:14;;;;;;;17.13;13.57;;;19.90;46.90;;;;;;5048627;28;20037;-69
2022/05/02 13:11:41;;;;;;;15.55;11.30;;;20.10;46.50;;;;;;5030757;28;20040;-68
2022/05/02 13:14:07;;;;;;;16.35;12.65;;;20.00;46.60;;;;;;5048232;28;20043;-69
2022/05/02 13:16:40;;;;;;;15.52;11.48;;;20.00;46.50;;;;;;5048179;28;20084;-68
2022/05/02 13:19:07;;;;;;;19.15;11.10;;;20.40;47.20;;;;;;5047954;28;20045;-69
2022/05/02 13:21:33;;;;;;;20.75;11.13;;;20.50;46.70;;;;;;5048397;28;20095;-68
2022/05/02 13:24:07;;;;;;;18.38;12.32;;;20.50;46.90;;;;;;5047425;28;20052;-69
2022/05/02 13:26:37;;;;;;;17.60;14.65;;;20.30;45.40;;;;;;5051807;28;20665;-69
2022/05/02 13:29:31;;;;;;;21.08;15.38;;;20.40;46.60;;;;;;5052836;28;20049;-69
2022/05/02 13:32:11;;;;;;;17.48;15.55;;;20.50;47.00;;;;;;5052064;28;20060;-69
2022/05/02 13:34:51;;;;;;;16.35;14.52;;;20.50;47.00;;;;;;5052648;28;20452;-69
2022/05/02 13:37:27;;;;;;;18.92;15.68;;;19.70;46.40;;;;;;5048215;28;20041;-69
2022/05/02 13:40:04;;;;;;;17.15;14.30;;;19.60;46.70;;;;;;5034190;28;20053;-68